createdAt,value
2019-03-05T00:00:31.935Z,68.31
2019-03-05T00:03:01.507Z,68.29
2019-03-05T00:05:31.195Z,68.11
2019-03-05T00:08:00.686Z,68.52
2019-03-05T00:10:30.483Z,68.10
2019-03-05T00:13:00.066Z,68.10
2019-03-05T00:15:30.446Z,67.97
2019-03-05T00:18:00.164Z,67.99
2019-03-05T00:20:29.704Z,68.13
2019-03-05T00:22:59.394Z,68.63
2019-03-05T00:25:31.892Z,68.35
2019-03-05T00:28:04.464Z,68.51
2019-03-05T00:30:37.379Z,68.67
2019-03-05T00:33:10.574Z,68.23
2019-03-05T00:35:42.407Z,67.83
2019-03-05T00:38:14.980Z,67.53
2019-03-05T00:40:47.606Z,67.53
2019-03-05T00:43:20.193Z,67.50
2019-03-05T00:45:51.251Z,67.31
2019-03-05T00:48:23.892Z,67.54
2019-03-05T00:50:56.515Z,67.96
2019-03-05T00:53:29.095Z,67.96
2019-03-05T00:56:01.692Z,67.98
2019-03-05T00:58:34.278Z,68.27
2019-03-05T01:01:06.893Z,68.21
2019-03-05T01:03:39.765Z,69.16
2019-03-05T01:06:12.838Z,69.84
2019-03-05T01:08:42.516Z,70.12
2019-03-05T01:11:12.533Z,70.36
2019-03-05T01:13:42.790Z,70.10
2019-03-05T01:16:12.698Z,70.78
2019-03-05T01:18:42.768Z,70.80
2019-03-05T01:21:12.491Z,70.55
2019-03-05T01:23:42.045Z,71.12
2019-03-05T01:26:12.224Z,71.45
2019-03-05T01:28:43.820Z,71.59
2019-03-05T01:31:15.316Z,71.67
2019-03-05T01:33:46.585Z,72.02
2019-03-05T01:36:17.821Z,72.28
2019-03-05T01:38:49.037Z,72.17
2019-03-05T01:41:18.720Z,72.39
2019-03-05T01:43:48.335Z,72.26
2019-03-05T01:46:17.935Z,72.19
2019-03-05T01:48:47.229Z,72.01
2019-03-05T01:51:16.818Z,71.96
2019-03-05T01:53:46.308Z,71.51
2019-03-05T01:56:15.758Z,70.94
2019-03-05T01:58:45.367Z,70.53
2019-03-05T02:01:14.882Z,70.25
2019-03-05T02:03:44.427Z,69.60
2019-03-05T02:06:13.829Z,69.63
2019-03-05T02:08:43.366Z,69.06
2019-03-05T02:11:13.657Z,68.72
2019-03-05T02:13:43.367Z,68.43
2019-03-05T02:19:47.314Z,67.68
2019-03-05T02:22:20.001Z,67.41
2019-03-05T02:24:52.610Z,67.52
2019-03-05T02:27:25.209Z,67.54
2019-03-05T02:30:16.978Z,67.12
2019-03-05T02:32:49.670Z,67.01
2019-03-05T02:35:22.244Z,67.30
2019-03-05T02:37:52.977Z,67.15
2019-03-05T02:40:25.541Z,66.99
2019-03-05T02:43:15.871Z,66.45
2019-03-05T02:45:48.450Z,66.36
2019-03-05T02:48:21.075Z,66.46
2019-03-05T02:54:27.683Z,66.65
2019-03-05T02:57:00.364Z,67.04
2019-03-05T02:59:29.933Z,66.77
2019-03-05T03:02:01.136Z,66.66
2019-03-05T03:04:32.390Z,66.69
2019-03-05T03:07:01.953Z,66.65
2019-03-05T03:09:33.052Z,66.57
2019-03-05T03:12:04.056Z,66.16
2019-03-05T03:14:33.579Z,66.35
2019-03-05T03:17:03.048Z,66.73
2019-03-05T03:19:32.230Z,67.23
2019-03-05T03:22:01.700Z,67.42
2019-03-05T03:24:31.312Z,67.52
2019-03-05T03:27:00.730Z,67.55
2019-03-05T03:29:30.273Z,67.56
2019-03-05T03:31:59.855Z,68.22
2019-03-05T03:34:29.415Z,67.88
2019-03-05T03:36:58.878Z,67.44
2019-03-05T03:39:28.675Z,67.09
2019-03-05T03:41:57.944Z,66.95
2019-03-05T03:44:27.498Z,67.00
2019-03-05T03:46:57.030Z,66.54
2019-03-05T03:49:26.475Z,66.17
2019-03-05T03:51:55.938Z,66.35
2019-03-05T03:54:25.463Z,66.36
2019-03-05T03:56:55.074Z,65.91
2019-03-05T03:59:25.673Z,65.53
2019-03-05T04:01:55.252Z,65.32
2019-03-05T04:04:24.857Z,65.23
2019-03-05T04:06:54.485Z,65.25
2019-03-05T04:09:23.986Z,65.11
2019-03-05T04:11:53.514Z,65.28
2019-03-05T04:14:22.678Z,65.21
2019-03-05T04:16:52.254Z,65.11
2019-03-05T04:19:23.527Z,64.90
2019-03-05T04:21:53.063Z,64.52
2019-03-05T04:24:22.664Z,64.41
2019-03-05T04:26:52.394Z,64.81
2019-03-05T04:29:22.011Z,65.12
2019-03-05T04:31:51.629Z,65.71
2019-03-05T04:34:20.991Z,65.79
2019-03-05T04:36:50.636Z,66.11
2019-03-05T04:39:20.196Z,66.50
2019-03-05T04:41:49.589Z,66.62
2019-03-05T04:44:59.089Z,66.35
2019-03-05T04:47:28.550Z,66.40
2019-03-05T04:49:59.695Z,66.81
2019-03-05T04:52:29.272Z,66.43
2019-03-05T04:54:58.793Z,66.42
2019-03-05T04:57:28.271Z,65.89
2019-03-05T04:59:57.737Z,65.58
2019-03-05T05:02:27.331Z,65.44
2019-03-05T05:04:56.791Z,65.46
2019-03-05T05:07:26.270Z,65.17
2019-03-05T05:10:35.769Z,65.03
2019-03-05T05:13:05.143Z,65.03
2019-03-05T05:15:35.817Z,65.01
2019-03-05T05:18:05.405Z,65.17
2019-03-05T05:20:34.921Z,65.65
2019-03-05T05:23:04.426Z,65.91
2019-03-05T05:25:33.663Z,65.67
2019-03-05T05:28:03.131Z,66.06
2019-03-05T05:30:53.581Z,66.00
2019-03-05T05:33:34.375Z,65.93
2019-03-05T05:36:03.821Z,65.67
2019-03-05T05:38:33.337Z,65.61
2019-03-05T05:41:02.786Z,65.44
2019-03-05T05:43:32.965Z,65.46
2019-03-05T05:46:02.982Z,65.08
2019-03-05T05:48:32.508Z,64.87
2019-03-05T05:51:02.170Z,64.73
2019-03-05T05:53:31.765Z,64.71
2019-03-05T05:56:01.378Z,64.54
2019-03-05T05:58:30.924Z,64.35
2019-03-05T06:01:02.306Z,64.01
2019-03-05T06:03:31.771Z,64.02
2019-03-05T06:06:01.383Z,63.88
2019-03-05T06:08:30.896Z,64.21
2019-03-05T06:11:00.600Z,64.20
2019-03-05T06:13:30.059Z,63.98
2019-03-05T06:16:01.159Z,64.13
2019-03-05T06:18:30.749Z,64.13
2019-03-05T06:21:02.105Z,63.85
2019-03-05T06:23:31.751Z,64.00
2019-03-05T06:26:01.308Z,63.69
2019-03-05T06:28:30.898Z,63.91
2019-03-05T06:31:00.608Z,63.81
2019-03-05T06:33:30.146Z,63.84
2019-03-05T06:35:59.734Z,63.74
2019-03-05T06:38:29.272Z,63.76
2019-03-05T06:40:59.799Z,63.47
2019-03-05T06:43:29.250Z,63.11
2019-03-05T06:45:59.101Z,62.94
2019-03-05T06:48:28.551Z,63.04
2019-03-05T06:50:58.053Z,63.11
2019-03-05T06:53:27.504Z,62.84
2019-03-05T06:55:56.990Z,62.25
2019-03-05T06:58:26.558Z,62.19
2019-03-05T07:00:56.235Z,62.12
2019-03-05T07:03:25.523Z,62.06
2019-03-05T07:05:59.225Z,61.58
2019-03-05T07:08:28.887Z,61.40
2019-03-05T07:11:01.466Z,61.46
2019-03-05T07:13:33.982Z,61.19
2019-03-05T07:16:07.025Z,61.35
2019-03-05T07:18:40.062Z,61.36
2019-03-05T07:21:12.843Z,61.04
2019-03-05T07:23:45.193Z,60.83
2019-03-05T07:26:14.733Z,60.62
2019-03-05T07:28:44.426Z,60.82
2019-03-05T07:31:13.942Z,60.43
2019-03-05T07:33:43.541Z,60.16
2019-03-05T07:36:13.059Z,60.39
2019-03-05T07:38:42.423Z,61.33
2019-03-05T07:41:11.957Z,60.32
2019-03-05T07:43:41.498Z,59.41
2019-03-05T07:46:11.037Z,58.94
2019-03-05T07:48:40.646Z,57.75
2019-03-05T07:51:10.450Z,58.31
2019-03-05T07:53:40.120Z,59.01
2019-03-05T07:56:10.220Z,59.44
2019-03-05T07:58:39.898Z,59.94
2019-03-05T08:01:21.506Z,59.38
2019-03-05T08:03:42.309Z,59.85
2019-03-05T08:06:12.536Z,59.25
2019-03-05T08:08:45.471Z,59.60
2019-03-05T08:11:15.402Z,59.32
2019-03-05T08:13:48.007Z,59.44
2019-03-05T08:16:19.225Z,59.29
2019-03-05T08:18:48.868Z,59.54
2019-03-05T08:21:18.422Z,59.60
2019-03-05T08:23:51.006Z,59.42
2019-03-05T08:26:20.619Z,58.91
2019-03-05T08:28:50.493Z,58.52
2019-03-05T08:31:20.094Z,57.96
2019-03-05T08:33:49.696Z,57.46
2019-03-05T08:36:19.233Z,57.33
2019-03-05T08:38:49.161Z,57.34
2019-03-05T08:41:18.704Z,57.89
2019-03-05T08:43:48.730Z,58.62
2019-03-05T08:46:18.200Z,58.94
2019-03-05T08:48:49.851Z,59.25
2019-03-05T08:51:19.877Z,59.20
2019-03-05T08:53:50.054Z,59.53
2019-03-05T08:56:59.566Z,59.85
2019-03-05T08:59:29.384Z,61.46
2019-03-05T09:01:58.918Z,61.83
2019-03-05T09:04:31.826Z,62.23
2019-03-05T09:07:01.628Z,61.99
2019-03-05T09:09:31.526Z,61.24
2019-03-05T09:12:01.123Z,61.36
2019-03-05T09:14:30.731Z,60.59
2019-03-05T09:17:00.296Z,61.16
2019-03-05T09:19:50.626Z,61.69
2019-03-05T09:22:20.173Z,62.24
2019-03-05T09:24:49.891Z,63.44
2019-03-05T09:27:19.580Z,63.39
2019-03-05T09:29:49.046Z,63.64
2019-03-05T09:32:19.084Z,62.23
2019-03-05T09:34:48.650Z,62.90
2019-03-05T09:37:18.093Z,63.02
2019-03-05T09:39:47.619Z,62.65
2019-03-05T09:42:17.322Z,62.05
2019-03-05T09:44:46.789Z,62.23
2019-03-05T09:47:16.309Z,62.81
2019-03-05T09:49:45.836Z,62.77
2019-03-05T09:52:17.730Z,62.56
2019-03-05T09:54:47.248Z,62.18
2019-03-05T09:57:16.769Z,61.73
2019-03-05T09:59:46.314Z,61.88
2019-03-05T10:02:16.935Z,61.75
2019-03-05T10:04:46.422Z,61.08
2019-03-05T10:07:19.298Z,60.90
2019-03-05T10:09:47.032Z,60.78
2019-03-05T10:12:16.647Z,60.38
2019-03-05T10:14:46.079Z,60.29
2019-03-05T10:17:15.627Z,60.18
2019-03-05T10:19:44.911Z,60.31
2019-03-05T10:22:14.540Z,60.24
2019-03-05T10:24:44.056Z,60.39
2019-03-05T10:27:13.663Z,60.67
2019-03-05T10:29:43.172Z,61.11
2019-03-05T10:35:28.526Z,62.77
2019-03-05T10:38:01.205Z,63.91
2019-03-05T10:40:33.500Z,64.60
2019-03-05T10:43:08.847Z,64.34
2019-03-05T10:45:36.451Z,64.89
2019-03-05T10:48:06.277Z,65.34
2019-03-05T10:50:35.788Z,66.40
2019-03-05T10:53:05.710Z,67.22
2019-03-05T10:55:35.281Z,68.52
2019-03-05T10:58:05.382Z,69.18
2019-03-05T11:00:38.331Z,69.47
2019-03-05T11:03:09.660Z,68.96
2019-03-05T11:05:40.250Z,68.74
2019-03-05T11:08:14.906Z,68.36
2019-03-05T11:10:44.417Z,68.36
2019-03-05T11:13:14.130Z,67.87
2019-03-05T11:15:43.449Z,68.56
2019-03-05T11:18:13.260Z,68.43
2019-03-05T11:20:42.561Z,67.91
2019-03-05T11:23:12.381Z,68.16
2019-03-05T11:25:41.898Z,68.83
2019-03-05T11:28:11.093Z,68.80
2019-03-05T11:30:40.799Z,69.06
2019-03-05T11:33:09.729Z,68.62
2019-03-05T11:35:39.411Z,68.17
2019-03-05T11:38:09.208Z,68.07
2019-03-05T11:40:38.915Z,66.62
2019-03-05T11:43:11.013Z,66.97
2019-03-05T11:45:42.402Z,65.87
2019-03-05T11:48:12.098Z,65.15
2019-03-05T11:50:41.353Z,65.22
2019-03-05T11:53:10.715Z,64.90
2019-03-05T11:55:41.327Z,65.32
2019-03-05T11:58:10.990Z,64.22
2019-03-05T12:00:42.813Z,63.85
2019-03-05T12:03:31.886Z,63.85
2019-03-05T12:06:01.580Z,64.52
2019-03-05T12:08:31.173Z,64.40
2019-03-05T12:11:00.772Z,64.16
2019-03-05T12:13:30.299Z,64.05
2019-03-05T12:16:00.123Z,63.54
2019-03-05T12:18:29.740Z,63.80
2019-03-05T12:20:59.699Z,63.67
2019-03-05T12:23:29.198Z,63.96
2019-03-05T12:25:58.751Z,63.32
2019-03-05T12:28:28.354Z,63.41
2019-03-05T12:30:57.964Z,62.78
2019-03-05T12:33:27.565Z,62.50
2019-03-05T12:35:57.037Z,62.06
2019-03-05T12:42:03.512Z,62.00
2019-03-05T12:44:32.254Z,62.26
2019-03-05T12:47:01.776Z,62.26
2019-03-05T12:49:31.358Z,61.83
2019-03-05T12:52:00.971Z,62.20
2019-03-05T12:54:30.451Z,62.19
2019-03-05T12:57:00.100Z,62.71
2019-03-05T12:59:29.611Z,61.47
2019-03-05T13:01:59.167Z,61.15
2019-03-05T13:04:28.783Z,61.65
2019-03-05T13:06:58.447Z,62.02
2019-03-05T13:09:28.022Z,62.05
2019-03-05T13:11:57.565Z,63.31
2019-03-05T13:14:27.151Z,62.89
2019-03-05T13:16:56.694Z,63.53
2019-03-05T13:19:26.265Z,63.71
2019-03-05T13:21:55.873Z,63.92
2019-03-05T13:24:25.565Z,64.21
2019-03-05T13:26:55.139Z,64.00
2019-03-05T13:29:24.658Z,64.04
2019-03-05T13:31:54.160Z,64.21
2019-03-05T13:34:24.335Z,63.85
2019-03-05T13:36:53.941Z,63.75
2019-03-05T13:46:00.066Z,61.97
2019-03-05T13:48:32.651Z,60.78
2019-03-05T13:51:05.254Z,60.11
2019-03-05T13:53:37.826Z,59.71
2019-03-05T13:56:11.913Z,58.68
2019-03-05T13:58:44.202Z,57.71
2019-03-05T14:01:13.772Z,57.29
2019-03-05T14:03:46.386Z,57.03
2019-03-05T14:06:19.188Z,57.90
2019-03-05T14:08:51.797Z,57.24
2019-03-05T14:11:21.462Z,57.08
2019-03-05T14:13:51.040Z,56.72
2019-03-05T14:16:21.526Z,56.02
2019-03-05T14:18:51.028Z,56.24
2019-03-05T14:21:20.693Z,55.70
2019-03-05T14:23:50.168Z,55.51
2019-03-05T14:26:19.862Z,56.26
2019-03-05T14:28:49.422Z,55.84
2019-03-05T14:31:19.008Z,55.93
2019-03-05T14:33:50.379Z,55.88
2019-03-05T14:36:20.413Z,56.25
2019-03-05T14:38:51.848Z,55.50
2019-03-05T14:41:21.962Z,55.06
2019-03-05T14:43:51.886Z,55.23
2019-03-05T14:46:21.543Z,55.36
2019-03-05T14:48:51.185Z,54.75
2019-03-05T14:51:20.800Z,55.49
2019-03-05T14:53:50.359Z,55.30
2019-03-05T14:56:19.918Z,55.36
2019-03-05T14:58:49.724Z,55.31
2019-03-05T15:01:19.195Z,54.90
2019-03-05T15:03:48.742Z,54.93
2019-03-05T15:06:18.273Z,54.70
2019-03-05T15:08:47.809Z,54.72
2019-03-05T15:11:17.186Z,54.80
2019-03-05T15:13:46.871Z,54.83
2019-03-05T15:16:16.439Z,54.68
2019-03-05T15:18:47.485Z,54.84
2019-03-05T15:21:17.081Z,55.04
2019-03-05T15:23:46.980Z,54.80
2019-03-05T15:26:16.493Z,54.77
2019-03-05T15:28:55.744Z,55.21
2019-03-05T15:31:17.387Z,54.56
2019-03-05T15:33:47.069Z,53.90
2019-03-05T15:36:23.710Z,53.60
2019-03-05T15:38:48.633Z,53.47
2019-03-05T15:41:18.255Z,53.32
2019-03-05T15:43:47.664Z,52.34
2019-03-05T15:46:17.396Z,52.78
2019-03-05T15:48:46.810Z,52.66
2019-03-05T15:51:16.160Z,52.81
2019-03-05T15:56:15.182Z,53.69
2019-03-05T15:58:44.628Z,53.43
2019-03-05T16:01:22.039Z,53.25
2019-03-05T16:03:45.571Z,52.80
2019-03-05T16:06:15.187Z,52.29
2019-03-05T16:08:44.629Z,52.19
2019-03-05T16:11:14.081Z,52.29
2019-03-05T16:13:43.541Z,51.63
2019-03-05T16:16:13.154Z,51.93
2019-03-05T16:18:42.901Z,52.07
2019-03-05T16:21:12.443Z,52.13
2019-03-05T16:23:42.016Z,51.76
2019-03-05T16:26:11.728Z,51.91
2019-03-05T16:28:43.469Z,52.26
2019-03-05T16:31:14.451Z,52.61
2019-03-05T16:33:45.867Z,52.96
2019-03-05T16:36:17.020Z,53.38
2019-03-05T16:38:51.091Z,53.65
2019-03-05T16:41:21.791Z,54.17
2019-03-05T16:43:53.353Z,54.03
2019-03-05T16:46:24.590Z,54.14
2019-03-05T16:48:55.711Z,54.27
2019-03-05T16:51:26.932Z,54.90
2019-03-05T16:53:58.163Z,55.29
2019-03-05T16:56:29.371Z,54.83
2019-03-05T16:59:00.762Z,55.34
2019-03-05T17:01:31.802Z,55.25
2019-03-05T17:04:03.029Z,55.58
2019-03-05T17:06:34.969Z,56.24
2019-03-05T17:09:07.236Z,56.63
2019-03-05T17:11:38.467Z,57.07
2019-03-05T17:14:08.483Z,57.24
2019-03-05T17:16:37.741Z,57.48
2019-03-05T17:19:08.023Z,57.58
2019-03-05T17:21:37.468Z,58.27
2019-03-05T17:24:07.481Z,58.55
2019-03-05T17:26:37.755Z,58.30
2019-03-05T17:29:07.434Z,59.00
2019-03-05T17:31:36.704Z,59.79
2019-03-05T17:34:06.349Z,59.84
2019-03-05T17:36:36.124Z,59.94
2019-03-05T17:39:09.530Z,59.97
2019-03-05T17:41:38.795Z,60.08
2019-03-05T17:44:08.780Z,61.05
2019-03-05T17:46:38.319Z,61.05
2019-03-05T17:49:08.003Z,61.29
2019-03-05T17:51:37.521Z,61.25
2019-03-05T17:54:06.976Z,61.35
2019-03-05T17:56:36.509Z,61.88
2019-03-05T18:02:23.130Z,62.72
2019-03-05T18:04:52.992Z,63.25
2019-03-05T18:07:22.476Z,63.71
2019-03-05T18:09:51.963Z,64.17
2019-03-05T18:12:21.049Z,64.79
2019-03-05T18:14:50.895Z,64.94
2019-03-05T18:17:20.600Z,65.15
2019-03-05T18:19:50.194Z,66.30
2019-03-05T18:22:19.593Z,66.48
2019-03-05T18:24:49.060Z,66.86
2019-03-05T18:27:18.775Z,67.09
2019-03-05T18:29:48.249Z,67.67
2019-03-05T18:32:17.761Z,67.65
2019-03-05T18:34:47.228Z,67.78
2019-03-05T18:37:16.687Z,68.22
2019-03-05T18:39:46.423Z,68.60
2019-03-05T18:42:16.027Z,69.00
2019-03-05T18:44:45.622Z,69.32
2019-03-05T18:47:15.213Z,68.97
2019-03-05T18:49:44.704Z,69.02
2019-03-05T18:52:14.232Z,69.05
2019-03-05T18:54:43.770Z,69.18
2019-03-05T18:57:53.276Z,69.31
2019-03-05T19:00:24.796Z,69.63
2019-03-05T19:02:56.482Z,69.56
2019-03-05T19:05:26.209Z,69.65
2019-03-05T19:07:55.886Z,69.79
2019-03-05T19:14:00.811Z,69.31
2019-03-05T19:16:30.526Z,69.29
2019-03-05T19:19:00.736Z,69.29
2019-03-05T19:21:30.257Z,69.41
2019-03-05T19:24:01.097Z,69.84
2019-03-05T19:26:30.657Z,69.57
2019-03-05T19:29:00.169Z,69.38
2019-03-05T19:31:29.990Z,69.30
2019-03-05T19:33:59.702Z,69.57
2019-03-05T19:42:06.625Z,69.93
2019-03-05T19:44:36.080Z,70.04
2019-03-05T19:47:05.695Z,70.16
2019-03-05T19:49:35.396Z,69.98
2019-03-05T19:52:05.064Z,70.40
2019-03-05T19:54:34.517Z,70.42
2019-03-05T19:57:04.120Z,70.72
2019-03-05T19:59:33.570Z,70.59
2019-03-05T20:02:03.123Z,70.85
2019-03-05T20:04:32.938Z,70.69
2019-03-05T20:07:02.660Z,70.83
2019-03-05T20:12:46.989Z,70.60
2019-03-05T20:15:17.948Z,71.01
2019-03-05T20:17:47.625Z,71.25
2019-03-05T20:20:17.572Z,71.32
2019-03-05T20:22:47.188Z,71.28
2019-03-05T20:25:19.151Z,71.47
2019-03-05T20:27:50.427Z,71.57
2019-03-05T20:30:23.311Z,71.73
2019-03-05T20:32:53.022Z,71.87
2019-03-05T20:35:22.462Z,72.32
2019-03-05T20:37:52.082Z,72.27
2019-03-05T20:40:24.703Z,71.96
2019-03-05T20:42:54.236Z,72.25
2019-03-05T20:45:26.676Z,72.56
2019-03-05T20:47:58.260Z,72.91
2019-03-05T20:50:27.865Z,73.14
2019-03-05T20:55:45.515Z,72.89
2019-03-05T20:58:15.169Z,73.10
2019-03-05T21:00:45.127Z,73.09
2019-03-05T21:03:16.433Z,73.02
2019-03-05T21:05:47.725Z,73.10
2019-03-05T21:08:17.278Z,73.15
2019-03-05T21:10:46.992Z,73.06
2019-03-05T21:13:16.691Z,73.05
2019-03-05T21:15:46.515Z,72.98
2019-03-05T21:18:19.510Z,72.99
2019-03-05T21:20:48.973Z,72.89
2019-03-05T21:23:18.809Z,72.83
2019-03-05T21:25:48.447Z,72.92
2019-03-05T21:28:18.009Z,72.86
2019-03-05T21:30:47.387Z,72.91
2019-03-05T21:36:31.377Z,73.09
2019-03-05T21:39:01.375Z,73.08
2019-03-05T21:41:30.964Z,73.13
2019-03-05T21:44:00.556Z,72.99
2019-03-05T21:46:30.468Z,73.28
2019-03-05T21:48:59.890Z,73.35
2019-03-05T21:51:29.490Z,72.80
2019-03-05T21:53:59.111Z,73.26
2019-03-05T21:56:28.536Z,73.45
2019-03-05T21:58:58.262Z,73.42
2019-03-05T22:01:27.962Z,73.66
2019-03-05T22:03:57.448Z,73.69
2019-03-05T22:06:27.505Z,73.86
2019-03-05T22:08:56.820Z,73.82
2019-03-05T22:11:26.364Z,73.91
2019-03-05T22:13:55.806Z,73.59
2019-03-05T22:16:25.415Z,73.60
2019-03-05T22:18:54.856Z,73.36
2019-03-05T22:21:24.741Z,73.29
2019-03-05T22:23:54.237Z,73.30
2019-03-05T22:26:23.985Z,73.39
2019-03-05T22:28:53.648Z,73.20
2019-03-05T22:31:23.236Z,72.91
2019-03-05T22:33:52.817Z,72.82
2019-03-05T22:36:22.351Z,72.77
2019-03-05T22:38:52.339Z,72.51
2019-03-05T22:41:21.778Z,72.53
2019-03-05T22:43:51.405Z,72.54
2019-03-05T22:46:20.850Z,73.12
2019-03-05T22:48:50.433Z,73.26
2019-03-05T22:51:19.895Z,73.30
2019-03-05T22:53:49.468Z,73.18
2019-03-05T22:56:19.122Z,73.16
2019-03-05T22:58:49.629Z,72.95
2019-03-05T23:01:22.773Z,73.19
2019-03-05T23:03:52.390Z,73.28
2019-03-05T23:06:22.171Z,72.87
2019-03-05T23:08:51.894Z,73.18
2019-03-05T23:11:21.488Z,73.43
2019-03-05T23:13:51.754Z,73.62
2019-03-05T23:16:21.756Z,73.17
2019-03-05T23:18:51.377Z,72.70
2019-03-05T23:21:20.894Z,72.70
2019-03-05T23:23:50.254Z,72.86
2019-03-05T23:26:19.877Z,72.82
2019-03-05T23:28:49.527Z,72.46
2019-03-05T23:31:19.206Z,72.21
2019-03-05T23:33:48.773Z,71.26
2019-03-05T23:36:18.529Z,71.12
2019-03-05T23:38:48.079Z,71.05
2019-03-05T23:41:17.770Z,70.35
2019-03-05T23:43:47.308Z,70.86
2019-03-05T23:46:16.894Z,71.02
2019-03-05T23:48:46.546Z,71.19
2019-03-05T23:51:16.070Z,71.21
2019-03-05T23:53:45.691Z,71.11
2019-03-05T23:56:15.331Z,70.74
2019-03-05T23:58:44.890Z,71.00
